Latest Coastal Weather Observations for Learmonth

IDW60701

Issued at 11:12 am WST Sunday 24 May 2015 (issued every 10 minutes, with the page automatically refreshed every 10 minutes)

About coastal observations | Map of coastal stations | Coastal observations for WA | Marine services | Other Formats
Station Details ID: 005007 Name: LEARMONTH AIRPORT Lat: -22.24 Lon: 114.10 Height: 5.0 m
Data from the previous 72 hours. | See also: Recent months at Learmonth
Date/Time
WST
Temp

°C
Wind Pressure Rain
since 9am
mm
Weather Cloud Vis
km
Sea
Height
m
Swell
Dir
 
Speed
knots
Gust
knots
hPa Trend Height
m
Period
s
Dir
24/11:00am 24.0 SE 12 15 1016.5 - 0.0 - - 10 - - - -
24/10:30am 23.6 SE 12 15 1016.9 - 0.0 - - 10 - - - -
24/10:00am 22.7 SE 10 12 1017.1 - 0.0 - - 10 - - - -
24/09:30am 20.8 SSE 8 11 1017.2 - 0.0 - - 10 - - - -
24/09:00am 19.5 S 5 8 1017.0 - 0.0 - - 10 - - - -
24/08:30am 17.8 SSW 7 8 1016.8 - 0.0 - - 10 - - - -
24/08:00am 15.7 SW 7 9 1016.7 - 0.0 - - 10 - - - -
24/07:30am 14.3 SW 7 9 1016.6 - 0.0 - Partly cloudy 10 - - - -
24/07:00am 13.6 SW 6 7 1016.5 - 0.0 - Partly cloudy 10 - - - -
24/06:30am 13.5 SW 9 10 1016.1 - 0.0 - Partly cloudy 10 - - - -
24/06:00am 13.4 SW 8 9 1015.8 - 0.0 - Mostly clear 10 - - - -
24/05:30am 13.8 SW 8 9 1015.7 - 0.0 - Partly cloudy 10 - - - -
24/05:00am 13.6 SW 7 9 1015.6 - 0.0 - - 10 - - - -
24/04:30am 13.9 SW 8 9 1015.5 - 0.0 - - 10 - - - -
24/04:00am 14.2 SW 8 9 1015.6 - 0.0 - - 10 - - - -
24/03:30am 14.4 SW 7 8 1015.7 - 0.0 - - 10 - - - -
24/03:00am 15.0 SW 6 8 1015.4 - 0.0 - - 10 - - - -
24/02:30am 14.8 SW 7 8 1015.4 - 0.0 - - 10 - - - -
24/02:00am 15.0 SSW 8 9 1015.5 - 0.0 - - 10 - - - -
24/01:30am 15.5 SSW 9 11 1015.6 - 0.0 - - 10 - - - -
24/01:00am 15.6 SSW 9 11 1015.8 - 0.0 - - 10 - - - -
24/12:30am 15.8 SSW 9 10 1016.0 - 0.0 - - 10 - - - -
24/12:00am 15.9 SSW 9 10 1016.0 - 0.0 - - 10 - - - -
 
Date/Time
WST
Temp

°C
Wind Pressure Rain
since 9am
mm
Weather Cloud Vis
km
Sea
Height
m
Swell
Dir
 
Speed
knots
Gust
knots
hPa Trend Height
m
Period
s
Dir
23/11:30pm 16.2 SSW 9 10 1016.0 - 0.0 - - 10 - - - -
23/11:00pm 16.5 SSW 8 10 1016.2 - 0.0 - Partly cloudy 10 - - - -
23/10:30pm 16.8 SSW 8 10 1016.3 - 0.0 - Partly cloudy 10 - - - -
23/10:00pm 16.9 SSW 9 10 1016.4 - 0.0 - - 10 - - - -
23/09:30pm 16.6 SSW 9 9 1016.2 - 0.0 - - 10 - - - -
23/09:00pm 17.1 SSW 9 9 1016.1 - 0.0 - - 10 - - - -
23/08:30pm 17.2 SSW 9 10 1016.1 - 0.0 - - 10 - - - -
23/08:00pm 18.1 SW 8 9 1016.1 - 0.0 - Partly cloudy 10 - - - -
23/07:30pm 18.8 SSW 8 9 1016.0 - 0.0 - Partly cloudy 10 - - - -
23/07:00pm 20.0 SW 7 8 1015.8 - 0.0 - Partly cloudy 10 - - - -
23/06:30pm 21.6 CALM 0 2 1015.5 - 0.0 - Partly cloudy 10 - - - -
23/06:00pm 22.8 CALM 0 0 1015.3 - 0.0 - Partly cloudy 10 - - - -
23/05:30pm 23.8 CALM 0 3 1015.4 - 0.0 - Partly cloudy 10 - - - -
23/05:00pm 24.4 ENE 4 5 1015.3 - 0.0 - Partly cloudy 10 - - - -
23/04:30pm 24.7 NE 5 7 1015.3 - 0.0 - - 10 - - - -
23/04:00pm 25.1 ENE 6 8 1015.1 - 0.0 - - 10 - - - -
23/03:30pm 24.8 ENE 7 9 1015.3 - 0.0 - - 10 - - - -
23/03:00pm 25.0 ENE 6 9 1015.4 - 0.0 - - 10 - - - -
23/02:30pm 25.0 E 8 9 1015.5 - 0.0 - - 10 - - - -
23/02:00pm 24.4 E 9 12 1015.6 - 0.0 - - 10 - - - -
23/01:30pm 24.3 E 9 11 1015.8 - 0.0 - - 10 - - - -
23/01:00pm 24.5 SE 8 13 1016.0 - 0.0 - - 10 - - - -
23/12:30pm 24.5 SE 11 14 1016.4 - 0.0 - - 10 - - - -
23/12:00pm 24.5 ESE 11 14 1016.6 - 0.0 - - 10 - - - -
23/11:30am 24.1 ESE 11 14 1017.2 - 0.0 - - 10 - - - -
23/11:00am 24.5 SE 11 15 1017.5 - 0.0 - - 10 - - - -
23/10:30am 23.2 SE 11 14 1018.0 - 0.0 - - 10 - - - -
23/10:00am 23.2 SSE 10 12 1018.2 - 0.0 - - 10 - - - -
23/09:30am 22.1 SSE 10 13 1018.1 - 0.0 - - 10 - - - -
23/09:00am 20.2 S 7 9 1017.9 - 0.0 - Mostly clear 10 - - - -
23/08:30am 18.9 SSW 7 10 1018.0 - 0.0 - Partly cloudy 10 - - - -
23/08:00am 18.3 SW 6 7 1017.5 - 0.0 - Partly cloudy 10 - - - -
23/07:30am 17.8 WSW 5 6 1017.2 - 0.0 - - 10 - - - -
23/07:00am 17.5 SW 7 9 1017.1 - 0.0 - - 10 - - - -
23/06:30am 17.6 SW 6 7 1017.0 - 0.0 - - 10 - - - -
23/06:00am 17.7 SW 4 5 1016.8 - 0.0 - - 10 - - - -
23/05:30am 18.0 SW 4 5 1016.7 - 0.0 - - 10 - - - -
23/05:00am 18.0 SW 5 6 1016.7 - 0.0 - Partly cloudy 10 - - - -
23/04:30am 18.3 WSW 4 5 1016.4 - 0.0 - Partly cloudy 10 - - - -
23/04:00am 18.4 SW 2 3 1016.2 - 0.0 - Partly cloudy 10 - - - -
23/03:30am 18.7 WSW 5 5 1016.7 - 0.0 - Partly cloudy 10 - - - -
23/03:00am 18.5 SW 5 6 1016.5 - 0.0 - Mostly cloudy 10 - - - -
23/02:30am 18.6 SSW 5 5 1016.7 - 0.0 - Cloudy 10 - - - -
23/02:00am 18.6 SSW 4 5 1016.7 - 0.0 - Partly cloudy 10 - - - -
23/01:30am 19.0 SSW 4 5 1017.0 - 0.0 - Cloudy 10 - - - -
23/01:00am 19.1 S 4 5 1017.0 - 0.0 - Cloudy 10 - - - -
23/12:30am 19.2 S 4 4 1017.2 - 0.0 - Cloudy 10 - - - -
23/12:00am 19.2 S 4 5 1017.3 - 0.0 - Mostly cloudy 10 - - - -
 
Date/Time
WST
Temp

°C
Wind Pressure Rain
since 9am
mm
Weather Cloud Vis
km
Sea
Height
m
Swell
Dir
 
Speed
knots
Gust
knots
hPa Trend Height
m
Period
s
Dir
22/11:30pm 19.5 SSW 5 6 1017.6 - 0.0 - Cloudy 10 - - - -
22/11:00pm 19.7 SSW 3 4 1017.2 - 0.0 - Cloudy 10 - - - -
22/10:30pm 19.8 SW 3 4 1017.5 - 0.0 - Cloudy 10 - - - -
22/10:00pm 19.8 SW 5 5 1017.8 - 0.0 - Cloudy 10 - - - -
22/09:30pm 20.0 WSW 6 7 1017.7 - 0.0 - Cloudy 10 - - - -
22/09:00pm 19.6 WSW 4 6 1017.6 - 0.0 - Mostly clear 10 - - - -
22/08:30pm 20.0 SW 4 5 1017.4 - 0.0 - Partly cloudy 10 - - - -
22/08:00pm 20.0 SW 6 7 1017.3 - 0.0 - Cloudy 10 - - - -
22/07:30pm 20.4 SW 7 8 1017.2 - 0.0 - Partly cloudy 10 - - - -
22/07:00pm 20.7 SW 6 7 1016.5 - 0.0 - Partly cloudy 10 - - - -
22/06:30pm 22.0 W 5 6 1016.0 - 0.0 - Partly cloudy 10 - - - -
22/06:00pm 21.8 NNW 3 4 1015.8 - 0.0 - Mostly cloudy 10 - - - -
22/05:30pm 22.2 N 3 4 1015.7 - 0.0 - Partly cloudy 10 - - - -
22/05:00pm 22.6 N 7 8 1015.7 - 0.0 - Partly cloudy 10 - - - -
22/04:30pm 23.4 NNE 6 7 1015.7 - 0.0 - Partly cloudy 10 - - - -
22/04:00pm 24.0 NNE 7 8 1015.5 - 0.0 - Partly cloudy 10 - - - -
22/03:30pm 24.8 NNE 6 8 1015.5 - 0.0 - Partly cloudy 10 - - - -
22/03:00pm 24.2 NE 8 9 1015.3 - 0.0 - Partly cloudy 10 - - - -
22/02:30pm 24.6 NE 7 10 1015.5 - 0.0 - Partly cloudy 10 - - - -
22/02:00pm 24.5 NE 7 9 1015.7 - 0.0 - Partly cloudy 10 - - - -
22/01:30pm 24.6 ENE 7 9 1015.9 - 0.0 - Partly cloudy 10 - - - -
22/01:00pm 24.9 E 9 11 1016.1 - 0.0 - Partly cloudy 10 - - - -
22/12:30pm 24.1 E 7 9 1016.6 - 0.0 - Cloudy 10 - - - -
22/12:00pm 24.1 E 7 9 1017.0 - 0.0 - Partly cloudy 10 - - - -
22/11:30am 23.7 ENE 6 8 1017.4 - 0.0 - - 10 - - - -
22/11:00am 23.2 ENE 6 9 1017.6 - 0.0 - - 10 - - - -
22/10:30am 23.5 E 4 6 1017.7 - 0.0 - - 10 - - - -
22/10:00am 22.6 SSE 2 4 1018.1 - 0.0 - - 10 - - - -
22/09:30am 21.1 SE 4 6 1018.3 - 0.0 - - 10 - - - -
22/09:00am 20.0 SSE 2 4 1018.1 - 0.0 - Partly cloudy 10 - - - -
22/08:30am 18.8 SSW 3 4 1018.3 - 0.0 - Partly cloudy 10 - - - -
22/08:00am 17.0 WSW 5 6 1018.1 - 0.0 - Partly cloudy 10 - - - -
22/07:30am 15.4 WSW 6 7 1017.6 - 0.0 - - 10 - - - -
22/07:00am 14.9 WSW 6 6 1017.2 - 0.0 - - 10 - - - -
22/06:30am 14.4 SW 7 7 1017.1 - 0.0 - Partly cloudy 10 - - - -
22/06:00am 14.6 SW 6 7 1016.8 - 0.0 - Mostly clear 10 - - - -
22/05:30am 15.2 WSW 5 7 1016.8 - 0.0 - - 10 - - - -
22/05:00am 15.3 WSW 7 7 1016.7 - 0.0 - - 10 - - - -
22/04:30am 16.4 W 4 5 1016.7 - 0.0 - - 10 - - - -
22/04:00am 16.2 WSW 5 6 1016.8 - 0.0 - - 10 - - - -
22/03:30am 16.2 WSW 5 6 1016.8 - 0.0 - - 10 - - - -
22/03:00am 16.1 SW 5 6 1016.5 - 0.0 - Mostly clear 10 - - - -
22/02:30am 16.8 WSW 6 6 1016.8 - 0.0 - - 10 - - - -
22/02:00am 17.3 SW 5 6 1017.0 - 0.0 - Partly cloudy 10 - - - -
22/01:30am 17.2 SW 7 8 1017.1 - 0.0 - Partly cloudy 10 - - - -
22/01:00am 17.7 SSW 7 7 1017.1 - 0.0 - Partly cloudy 10 - - - -
22/12:30am 18.0 SW 5 6 1017.3 - 0.0 - Cloudy 10 - - - -
22/12:00am 18.1 SW 6 6 1017.4 - 0.0 - Cloudy 10 - - - -
 
Date/Time
WST
Temp

°C
Wind Pressure Rain
since 9am
mm
Weather Cloud Vis
km
Sea
Height
m
Swell
Dir
 
Speed
knots
Gust
knots
hPa Trend Height
m
Period
s
Dir
21/11:30pm 17.9 SSW 6 7 1017.7 - 0.0 - Partly cloudy 10 - - - -
21/11:00pm 18.6 SSW 4 5 1017.6 - 0.0 - Partly cloudy 10 - - - -
21/10:30pm 19.9 WSW 4 5 1017.6 - 0.0 - Partly cloudy 10 - - - -
21/10:00pm 19.6 W 2 4 1017.4 - 0.0 - Partly cloudy 10 - - - -
21/09:30pm 19.4 W 4 4 1017.3 - 0.0 - Partly cloudy 10 - - - -
21/09:00pm 19.5 WSW 2 3 1017.0 - 0.0 - Mostly clear 10 - - - -
21/08:30pm 19.8 WSW 4 5 1017.0 - 0.0 - Partly cloudy 10 - - - -
21/08:00pm 20.2 WSW 5 5 1016.8 - 0.0 - Partly cloudy 10 - - - -
21/07:30pm 19.7 SW 5 7 1016.9 - 0.0 - Partly cloudy 10 - - - -
21/07:00pm 20.8 WSW 5 7 1016.7 - 0.0 - Partly cloudy 10 - - - -
21/06:30pm 22.3 W 5 7 1016.5 - 0.0 - Partly cloudy 10 - - - -
21/06:00pm 22.3 NNW 4 5 1016.0 - 0.0 - Mostly cloudy 10 - - - -
21/05:30pm 23.1 N 5 7 1015.8 - 0.0 - Partly cloudy 10 - - - -
21/05:00pm 23.7 N 6 8 1015.5 - 0.0 - - 10 - - - -
21/04:30pm 24.1 NNE 8 10 1015.3 - 0.0 - - 10 - - - -
21/04:00pm 24.4 NNE 8 10 1015.2 - 0.0 - - 10 - - - -
21/03:30pm 25.0 NNE 7 9 1015.2 - 0.0 - - 10 - - - -
21/03:00pm 24.1 NNE 8 10 1015.1 R 0.0 Fine Mostly clear 30 - - - -
21/02:30pm 24.2 NE 7 9 1015.4 - 0.0 - Mostly clear 10 - - - -
21/02:00pm 24.8 NE 5 7 1015.6 - 0.0 - Mostly clear 10 - - - -
21/01:30pm 24.4 NE 5 6 1015.9 - 0.0 - Mostly clear 10 - - - -
21/01:00pm 24.1 ENE 6 8 1016.1 - 0.0 - Mostly clear 10 - - - -
21/12:30pm 23.5 ENE 6 8 1016.5 - 0.0 - Mostly clear 10 - - - -
21/12:00pm 23.0 E 7 10 1016.5 F 0.0 Fine Mostly clear 30 - - - -
21/11:30am 22.3 E 8 10 1017.0 - 0.0 - - 10 - - - -

Other Formats:

Comma delimited format used in spreadsheet applications
http://www.bom.gov.au/fwo/IDW60701/IDW60701.94302.axf

JavaScript Object Notation format (JSON) in row-major order
http://www.bom.gov.au/fwo/IDW60701/IDW60701.94302.json